Date,TemperatureHighF,TemperatureAvgF,TemperatureLowF,DewpointHighF,DewpointAvgF,DewpointLowF,HumidityHigh,HumidityAvg,HumidityLow,PressureMaxIn,PressureMinIn,WindSpeedMaxMPH,WindSpeedAvgMPH,GustSpeedMaxMPH,PrecipitationSumIn
2013-5-1,85,74,62,59,55,51,74,54,36,30.09,29.90,11,3,13,0.00
2013-5-2,61,47,38,51,42,36,95,82,69,30.26,30.09,13,5,18,0.33
2013-5-3,40,38,36,39,37,35,96,96,95,30.19,29.92,17,4,22,1.57
2013-5-4,48,44,38,46,43,37,98,94,86,30.08,29.89,5,0,6,0.02
2013-5-5,65,54,43,59,52,42,99,92,74,30.07,29.94,13,2,18,0.12
2013-5-6,74,62,52,58,54,52,98,78,49,30.06,29.98,12,2,18,0.01
2013-5-7,80,68,53,56,49,42,87,56,30,30.05,29.97,8,1,11,0.00
2013-5-8,82,67,53,60,54,47,91,66,37,30.04,29.96,11,1,13,0.00
2013-5-9,72,63,58,66,61,57,99,93,76,29.96,29.82,8,1,16,1.41
2013-5-10,59,56,51,58,54,50,100,94,80,30.05,29.85,11,2,13,0.00
2013-5-11,62,54,43,54,41,32,99,68,33,30.22,30.01,17,3,30,0.01
2013-5-12,61,49,36,35,31,26,78,53,29,30.28,30.17,13,2,19,0.00
2013-5-13,75,58,36,48,42,35,97,61,29,30.24,29.99,7,1,11,0.00
2013-5-14,90,74,56,64,56,46,83,56,32,29.99,29.75,9,2,17,0.00
2013-5-15,88,77,67,68,61,54,94,58,45,29.88,29.77,13,2,16,0.21
2013-5-16,84,68,62,70,64,58,99,88,55,29.94,29.83,7,0,12,0.05
2013-5-17,78,69,59,68,62,54,94,80,67,29.97,29.90,7,2,11,0.00
2013-5-18,81,71,63,70,66,62,99,84,63,30.00,29.84,11,3,13,0.00
2013-5-19,90,78,68,74,69,65,92,75,50,29.87,29.61,17,3,18,0.00
2013-5-20,83,69,61,69,64,60,99,84,51,29.87,29.65,16,3,26,1.56
2013-5-21,78,68,61,67,62,58,100,82,58,29.75,29.67,8,1,14,0.00
2013-5-22,71,64,60,60,57,53,95,78,60,29.89,29.67,11,2,17,0.00
2013-5-23,67,60,55,57,54,51,89,80,65,30.26,29.88,13,3,18,0.00
2013-5-24,68,58,47,51,47,42,96,68,43,30.43,30.26,11,3,16,0.00
2013-5-25,69,58,53,60,52,45,95,79,66,30.37,30.16,13,4,17,0.65
2013-5-26,76,64,53,66,59,49,95,83,70,30.19,29.97,13,4,15,0.00
2013-5-27,74,67,63,67,65,63,99,93,76,29.98,29.66,9,1,14,1.67
2013-5-28,78,72,62,72,68,60,98,86,77,29.94,29.72,14,2,28,0.55
2013-5-29,86,74,62,72,66,60,97,78,52,29.96,29.75,12,2,18,0.08
2013-5-30,84,72,62,70,66,61,100,83,60,29.84,29.71,20,4,34,2.12
2013-5-31,71,64,61,71,64,61,100,100,100,29.90,29.68,10,2,19,0.92